EJU98ZA EDDH-LIMC
Flight info
| Callsign | EJU98ZA |
|---|---|
| Flight time | 1h 35m |
| Altitude | 37000 |
| Route | IDEKO7G/33 IDEKO N850 PIROT/N0443F390 N850 XAROL/N0441F380 DCT BOMBI DCT GIGET DCT ABUKA DCT KRH DCT NATOR/N0445F390 DCT DITON DCT BASGO/N0394F290 Z424 AKASU/N0337F190 Z424 RIXUV |
| Aircraft | A20N/M-SDE2E3FGHIJ1RWXY/LB1 |
Departure
| Time | 2026-05-05 17:40 |
|---|---|
| Airport | Hamburg Helmut Schmidt Airport (EDDH) |
Arrival
| Time | 2026-05-05 19:15 |
|---|---|
| Airport | Milan Malpensa International Airport (LIMC) |
| Time | Latitude | Longitude | Altitude | Speed | Heading |
|---|---|---|---|---|---|
| 2026-05-05 16:54 | 53.62843 | 10.00213 | 48 ft | 0 kts | 62° |
| 2026-05-05 17:29 | 53.62835 | 10.00187 | 48 ft | 4 kts | 62° |
| 2026-05-05 17:29 | 53.62825 | 10.00153 | 44 ft | 4 kts | 68° |
| 2026-05-05 17:29 | 53.62821 | 10.00112 | 44 ft | 4 kts | 112° |
| 2026-05-05 17:29 | 53.62836 | 10.00077 | 45 ft | 4 kts | 144° |
| 2026-05-05 17:30 | 53.62859 | 10.00053 | 48 ft | 4 kts | 158° |
| 2026-05-05 17:30 | 53.62885 | 10.00043 | 45 ft | 4 kts | 182° |
| 2026-05-05 17:30 | 53.62910 | 10.00052 | 48 ft | 4 kts | 210° |
| 2026-05-05 17:30 | 53.62931 | 10.00080 | 43 ft | 4 kts | 229° |
| 2026-05-05 17:31 | 53.62948 | 10.00114 | 46 ft | 4 kts | 229° |
| 2026-05-05 17:31 | 53.62958 | 10.00132 | 45 ft | 0 kts | 212° |
| 2026-05-05 17:33 | 53.62956 | 10.00130 | 45 ft | 1 kts | 211° |
| 2026-05-05 17:33 | 53.62935 | 10.00115 | 46 ft | 6 kts | 202° |
| 2026-05-05 17:34 | 53.62890 | 10.00073 | 46 ft | 9 kts | 212° |
| 2026-05-05 17:34 | 53.62851 | 9.99982 | 48 ft | 8 kts | 243° |
| 2026-05-05 17:34 | 53.62843 | 9.99955 | 45 ft | 0 kts | 243° |
| 2026-05-05 17:37 | 53.62832 | 9.99916 | 47 ft | 9 kts | 243° |
| 2026-05-05 17:37 | 53.62806 | 9.99832 | 45 ft | 2 kts | 243° |
| 2026-05-05 17:38 | 53.62813 | 9.99794 | 45 ft | 6 kts | 306° |
| 2026-05-05 17:38 | 53.62829 | 9.99776 | 45 ft | 0 kts | 333° |
| 2026-05-05 17:39 | 53.62868 | 9.99744 | 45 ft | 25 kts | 333° |
| 2026-05-05 17:39 | 53.63235 | 9.99427 | 45 ft | 92 kts | 333° |
| 2026-05-05 17:39 | 53.63968 | 9.98794 | 50 ft | 142 kts | 333° |
| 2026-05-05 17:39 | 53.64944 | 9.97948 | 287 ft | 159 kts | 336° |
| 2026-05-05 17:40 | 53.65886 | 9.97105 | 962 ft | 151 kts | 333° |
| 2026-05-05 17:40 | 53.66822 | 9.96210 | 1465 ft | 160 kts | 335° |
| 2026-05-05 17:40 | 53.67851 | 9.95271 | 1908 ft | 178 kts | 335° |
| 2026-05-05 17:40 | 53.69002 | 9.94249 | 2393 ft | 198 kts | 335° |
| 2026-05-05 17:41 | 53.70291 | 9.93079 | 2908 ft | 217 kts | 326° |
| 2026-05-05 17:41 | 53.71208 | 9.90998 | 3796 ft | 230 kts | 290° |
| 2026-05-05 17:41 | 53.71315 | 9.88328 | 4831 ft | 231 kts | 258° |
| 2026-05-05 17:41 | 53.70870 | 9.85655 | 5618 ft | 247 kts | 253° |
| 2026-05-05 17:42 | 53.70285 | 9.82814 | 6248 ft | 265 kts | 251° |
| 2026-05-05 17:42 | 53.69653 | 9.79870 | 7181 ft | 266 kts | 251° |
| 2026-05-05 17:42 | 53.69033 | 9.76927 | 8204 ft | 268 kts | 251° |
| 2026-05-05 17:42 | 53.68418 | 9.73919 | 9017 ft | 273 kts | 251° |
| 2026-05-05 17:43 | 53.67810 | 9.70873 | 9540 ft | 275 kts | 251° |
| 2026-05-05 17:43 | 53.67204 | 9.67802 | 9890 ft | 277 kts | 252° |
| 2026-05-05 17:43 | 53.66581 | 9.64640 | 10349 ft | 295 kts | 252° |
| 2026-05-05 17:43 | 53.65682 | 9.61397 | 10666 ft | 318 kts | 235° |
| 2026-05-05 17:44 | 53.64061 | 9.58780 | 11291 ft | 330 kts | 214° |
| 2026-05-05 17:44 | 53.61922 | 9.57300 | 12121 ft | 337 kts | 193° |
| 2026-05-05 17:44 | 53.59601 | 9.56772 | 12905 ft | 344 kts | 188° |
| 2026-05-05 17:44 | 53.57177 | 9.56304 | 13716 ft | 348 kts | 188° |
| 2026-05-05 17:45 | 53.54784 | 9.55851 | 14432 ft | 352 kts | 188° |
| 2026-05-05 17:45 | 53.52342 | 9.55384 | 15182 ft | 355 kts | 188° |
| 2026-05-05 17:45 | 53.49872 | 9.54904 | 15916 ft | 359 kts | 188° |
| 2026-05-05 17:45 | 53.47379 | 9.54416 | 16641 ft | 362 kts | 188° |
| 2026-05-05 17:46 | 53.44864 | 9.53921 | 17368 ft | 366 kts | 188° |
| 2026-05-05 17:46 | 53.42319 | 9.53421 | 18067 ft | 370 kts | 188° |
| 2026-05-05 17:46 | 53.39759 | 9.52918 | 18715 ft | 372 kts | 188° |
| 2026-05-05 17:46 | 53.37179 | 9.52412 | 19365 ft | 374 kts | 188° |
| 2026-05-05 17:47 | 53.34584 | 9.51902 | 20009 ft | 376 kts | 188° |
| 2026-05-05 17:47 | 53.31977 | 9.51389 | 20652 ft | 378 kts | 188° |
| 2026-05-05 17:47 | 53.29351 | 9.50875 | 21281 ft | 381 kts | 188° |
| 2026-05-05 17:47 | 53.26710 | 9.50359 | 21907 ft | 384 kts | 188° |
| 2026-05-05 17:48 | 53.24049 | 9.49840 | 22521 ft | 387 kts | 188° |
| 2026-05-05 17:48 | 53.21367 | 9.49316 | 23122 ft | 389 kts | 189° |
| 2026-05-05 17:48 | 53.18666 | 9.48790 | 23679 ft | 392 kts | 189° |
| 2026-05-05 17:48 | 53.16866 | 9.48440 | 24013 ft | 393 kts | 189° |
| 2026-05-05 17:49 | 53.14143 | 9.47910 | 24522 ft | 395 kts | 189° |
| 2026-05-05 17:49 | 53.11405 | 9.47378 | 25014 ft | 397 kts | 189° |
| 2026-05-05 17:49 | 53.08652 | 9.46844 | 25495 ft | 400 kts | 189° |
| 2026-05-05 17:49 | 53.05880 | 9.46307 | 25965 ft | 402 kts | 189° |
| 2026-05-05 17:50 | 53.03097 | 9.45769 | 26427 ft | 404 kts | 189° |
| 2026-05-05 17:50 | 53.00296 | 9.45228 | 26880 ft | 406 kts | 189° |
| 2026-05-05 17:50 | 52.97484 | 9.44675 | 27312 ft | 408 kts | 190° |
| 2026-05-05 17:50 | 52.94657 | 9.44073 | 27734 ft | 410 kts | 191° |
| 2026-05-05 17:51 | 52.91821 | 9.43455 | 28157 ft | 412 kts | 191° |
| 2026-05-05 17:51 | 52.88971 | 9.42834 | 28563 ft | 414 kts | 191° |
| 2026-05-05 17:51 | 52.86104 | 9.42214 | 28950 ft | 416 kts | 190° |
| 2026-05-05 17:51 | 52.83219 | 9.41595 | 29367 ft | 417 kts | 190° |
| 2026-05-05 17:52 | 52.80340 | 9.40982 | 29718 ft | 420 kts | 190° |
| 2026-05-05 17:52 | 52.77435 | 9.40365 | 30063 ft | 422 kts | 190° |
| 2026-05-05 17:52 | 52.74522 | 9.39747 | 30424 ft | 422 kts | 190° |
| 2026-05-05 17:52 | 52.71607 | 9.39130 | 30801 ft | 423 kts | 190° |
| 2026-05-05 17:53 | 52.68727 | 9.38521 | 31199 ft | 422 kts | 190° |
| 2026-05-05 17:53 | 52.65825 | 9.37909 | 31685 ft | 419 kts | 190° |
| 2026-05-05 17:53 | 52.62942 | 9.37301 | 32186 ft | 416 kts | 190° |
| 2026-05-05 17:53 | 52.60081 | 9.36648 | 32639 ft | 413 kts | 191° |
| 2026-05-05 17:54 | 52.57253 | 9.35898 | 33101 ft | 410 kts | 192° |
| 2026-05-05 17:54 | 52.54449 | 9.35130 | 33594 ft | 407 kts | 192° |
| 2026-05-05 17:54 | 52.51662 | 9.34373 | 34032 ft | 405 kts | 192° |
| 2026-05-05 17:54 | 52.48882 | 9.33630 | 34289 ft | 405 kts | 192° |
| 2026-05-05 17:55 | 52.46090 | 9.32892 | 34506 ft | 407 kts | 192° |
| 2026-05-05 17:55 | 52.43296 | 9.32160 | 34729 ft | 408 kts | 192° |
| 2026-05-05 17:55 | 52.40492 | 9.31429 | 34955 ft | 409 kts | 192° |
| 2026-05-05 17:55 | 52.37677 | 9.30695 | 35159 ft | 410 kts | 191° |
| 2026-05-05 17:56 | 52.34856 | 9.29961 | 35366 ft | 411 kts | 191° |
| 2026-05-05 17:56 | 52.32028 | 9.29226 | 35602 ft | 411 kts | 191° |
| 2026-05-05 17:56 | 52.29203 | 9.28489 | 35801 ft | 412 kts | 191° |
| 2026-05-05 17:56 | 52.26374 | 9.27750 | 36007 ft | 412 kts | 191° |
| 2026-05-05 17:57 | 52.23539 | 9.27011 | 36211 ft | 413 kts | 191° |
| 2026-05-05 17:57 | 52.20689 | 9.26348 | 36410 ft | 414 kts | 189° |
| 2026-05-05 17:57 | 52.17826 | 9.25838 | 36608 ft | 415 kts | 188° |
| 2026-05-05 17:57 | 52.14946 | 9.25361 | 36800 ft | 415 kts | 188° |
| 2026-05-05 17:58 | 52.12077 | 9.24877 | 37034 ft | 415 kts | 188° |
| 2026-05-05 17:58 | 52.09286 | 9.24393 | 37195 ft | 415 kts | 188° |
| 2026-05-05 17:58 | 52.06406 | 9.23881 | 37380 ft | 416 kts | 188° |
| 2026-05-05 17:58 | 52.03534 | 9.23332 | 37553 ft | 415 kts | 190° |
| 2026-05-05 17:59 | 52.00682 | 9.22608 | 37715 ft | 415 kts | 192° |
| 2026-05-05 17:59 | 51.97830 | 9.21816 | 37822 ft | 416 kts | 192° |
| 2026-05-05 17:59 | 51.94981 | 9.21027 | 37823 ft | 415 kts | 192° |
| 2026-05-05 18:00 | 51.89291 | 9.19501 | 37818 ft | 415 kts | 191° |
| 2026-05-05 18:00 | 51.83576 | 9.18153 | 37812 ft | 415 kts | 189° |
| 2026-05-05 18:01 | 51.77883 | 9.16964 | 37811 ft | 415 kts | 189° |
| 2026-05-05 18:01 | 51.72153 | 9.15741 | 37806 ft | 416 kts | 189° |
| 2026-05-05 18:02 | 51.66414 | 9.14502 | 37799 ft | 416 kts | 189° |
| 2026-05-05 18:02 | 51.60678 | 9.13264 | 37799 ft | 416 kts | 189° |
| 2026-05-05 18:03 | 51.54936 | 9.12029 | 37803 ft | 417 kts | 189° |
| 2026-05-05 18:03 | 51.49195 | 9.10656 | 37807 ft | 417 kts | 193° |
| 2026-05-05 18:04 | 51.43512 | 9.08702 | 37797 ft | 417 kts | 193° |
| 2026-05-05 18:04 | 51.37866 | 9.06766 | 37793 ft | 415 kts | 193° |
| 2026-05-05 18:05 | 51.32213 | 9.04852 | 37799 ft | 415 kts | 192° |
| 2026-05-05 18:05 | 51.26478 | 9.03564 | 37799 ft | 417 kts | 188° |
| 2026-05-05 18:06 | 51.20727 | 9.02434 | 37803 ft | 415 kts | 188° |
| 2026-05-05 18:06 | 51.15015 | 9.01300 | 37799 ft | 414 kts | 188° |
| 2026-05-05 18:07 | 51.09295 | 9.00163 | 37799 ft | 415 kts | 188° |
| 2026-05-05 18:07 | 51.03563 | 8.99025 | 37800 ft | 415 kts | 188° |
| 2026-05-05 18:08 | 50.97833 | 8.97890 | 37795 ft | 415 kts | 188° |
| 2026-05-05 18:08 | 50.92086 | 8.96755 | 37798 ft | 416 kts | 188° |
| 2026-05-05 18:09 | 50.86348 | 8.95625 | 37789 ft | 415 kts | 188° |
| 2026-05-05 18:09 | 50.80615 | 8.94499 | 37792 ft | 415 kts | 188° |
| 2026-05-05 18:10 | 50.74923 | 8.93384 | 37790 ft | 415 kts | 188° |
| 2026-05-05 18:10 | 50.69196 | 8.92264 | 37790 ft | 414 kts | 188° |
| 2026-05-05 18:11 | 50.63477 | 8.91149 | 37790 ft | 414 kts | 188° |
| 2026-05-05 18:11 | 50.57760 | 8.90037 | 37786 ft | 414 kts | 188° |
| 2026-05-05 18:12 | 50.52043 | 8.88927 | 37781 ft | 414 kts | 188° |
| 2026-05-05 18:12 | 50.46323 | 8.87819 | 37782 ft | 414 kts | 188° |
| 2026-05-05 18:13 | 50.40594 | 8.86713 | 37787 ft | 415 kts | 188° |
| 2026-05-05 18:13 | 50.34857 | 8.85608 | 37792 ft | 416 kts | 188° |
| 2026-05-05 18:14 | 50.29164 | 8.84513 | 37785 ft | 416 kts | 187° |
| 2026-05-05 18:14 | 50.23333 | 8.83395 | 37839 ft | 420 kts | 187° |
| 2026-05-05 18:14 | 50.20426 | 8.82839 | 37970 ft | 421 kts | 187° |
| 2026-05-05 18:15 | 50.17517 | 8.82283 | 38133 ft | 422 kts | 188° |
| 2026-05-05 18:15 | 50.14631 | 8.81733 | 38299 ft | 422 kts | 188° |
| 2026-05-05 18:15 | 50.11721 | 8.81179 | 38465 ft | 422 kts | 188° |
| 2026-05-05 18:15 | 50.08806 | 8.80624 | 38589 ft | 422 kts | 188° |
| 2026-05-05 18:16 | 50.05888 | 8.80068 | 38659 ft | 423 kts | 188° |
| 2026-05-05 18:16 | 50.00039 | 8.78882 | 38801 ft | 424 kts | 189° |
| 2026-05-05 18:17 | 49.94236 | 8.77657 | 38808 ft | 423 kts | 189° |
| 2026-05-05 18:17 | 49.88404 | 8.76440 | 38823 ft | 423 kts | 188° |
| 2026-05-05 18:18 | 49.82563 | 8.75232 | 38819 ft | 423 kts | 188° |
| 2026-05-05 18:18 | 49.76805 | 8.74049 | 38821 ft | 423 kts | 188° |
| 2026-05-05 18:19 | 49.70971 | 8.72850 | 38823 ft | 423 kts | 188° |
| 2026-05-05 18:19 | 49.65136 | 8.71662 | 38825 ft | 423 kts | 188° |
| 2026-05-05 18:20 | 49.59296 | 8.70484 | 38829 ft | 423 kts | 188° |
| 2026-05-05 18:20 | 49.53464 | 8.69308 | 38829 ft | 423 kts | 188° |
| 2026-05-05 18:21 | 49.47631 | 8.68137 | 38829 ft | 423 kts | 188° |
| 2026-05-05 18:21 | 49.41796 | 8.66961 | 38826 ft | 423 kts | 188° |
| 2026-05-05 18:22 | 49.35970 | 8.65780 | 38830 ft | 422 kts | 188° |
| 2026-05-05 18:22 | 49.30144 | 8.64603 | 38827 ft | 422 kts | 188° |
| 2026-05-05 18:23 | 49.24322 | 8.63431 | 38823 ft | 422 kts | 188° |
| 2026-05-05 18:23 | 49.18547 | 8.62271 | 38816 ft | 421 kts | 188° |
| 2026-05-05 18:24 | 49.12741 | 8.61108 | 38817 ft | 421 kts | 188° |
| 2026-05-05 18:24 | 49.06922 | 8.59945 | 38817 ft | 421 kts | 188° |
| 2026-05-05 18:25 | 49.01113 | 8.58786 | 38820 ft | 421 kts | 188° |
| 2026-05-05 18:25 | 48.95353 | 8.57177 | 38821 ft | 421 kts | 193° |
| 2026-05-05 18:26 | 48.89662 | 8.55311 | 38820 ft | 421 kts | 193° |
| 2026-05-05 18:26 | 48.83928 | 8.53449 | 38820 ft | 421 kts | 193° |
| 2026-05-05 18:27 | 48.78217 | 8.51606 | 38821 ft | 421 kts | 193° |
| 2026-05-05 18:27 | 48.72470 | 8.49758 | 38830 ft | 421 kts | 193° |
| 2026-05-05 18:28 | 48.63871 | 8.46999 | 38832 ft | 421 kts | 193° |
| 2026-05-05 18:28 | 48.58132 | 8.45163 | 38830 ft | 421 kts | 193° |
| 2026-05-05 18:29 | 48.52395 | 8.43332 | 38834 ft | 421 kts | 193° |
| 2026-05-05 18:29 | 48.46650 | 8.41503 | 38837 ft | 422 kts | 193° |
| 2026-05-05 18:30 | 48.40912 | 8.39680 | 38845 ft | 422 kts | 193° |
| 2026-05-05 18:30 | 48.35169 | 8.37860 | 38844 ft | 422 kts | 193° |
| 2026-05-05 18:31 | 48.29420 | 8.36042 | 38853 ft | 422 kts | 193° |
| 2026-05-05 18:31 | 48.23665 | 8.34227 | 38860 ft | 422 kts | 193° |
| 2026-05-05 18:32 | 48.17893 | 8.32598 | 38859 ft | 423 kts | 188° |
| 2026-05-05 18:32 | 48.12055 | 8.32134 | 38852 ft | 424 kts | 181° |
| 2026-05-05 18:33 | 48.07100 | 8.32245 | 38854 ft | 424 kts | 181° |
| 2026-05-05 18:33 | 48.01194 | 8.32349 | 38860 ft | 424 kts | 181° |
| 2026-05-05 18:34 | 47.95289 | 8.32433 | 38863 ft | 424 kts | 181° |
| 2026-05-05 18:34 | 47.89381 | 8.32517 | 38864 ft | 424 kts | 181° |
| 2026-05-05 18:35 | 47.83477 | 8.32604 | 38867 ft | 424 kts | 181° |
| 2026-05-05 18:35 | 47.77570 | 8.32688 | 38873 ft | 425 kts | 181° |
| 2026-05-05 18:36 | 47.71656 | 8.32770 | 38882 ft | 425 kts | 181° |
| 2026-05-05 18:36 | 47.65770 | 8.32848 | 38896 ft | 425 kts | 182° |
| 2026-05-05 18:37 | 47.59860 | 8.32927 | 38896 ft | 425 kts | 182° |
| 2026-05-05 18:37 | 47.53956 | 8.33008 | 38896 ft | 424 kts | 182° |
| 2026-05-05 18:38 | 47.48110 | 8.33089 | 38901 ft | 423 kts | 182° |
| 2026-05-05 18:38 | 47.42240 | 8.33171 | 38888 ft | 421 kts | 182° |
| 2026-05-05 18:39 | 47.36395 | 8.33252 | 38895 ft | 422 kts | 182° |
| 2026-05-05 18:39 | 47.30521 | 8.33353 | 38903 ft | 423 kts | 180° |
| 2026-05-05 18:40 | 47.24634 | 8.34080 | 38907 ft | 427 kts | 178° |
| 2026-05-05 18:40 | 47.18708 | 8.34912 | 38906 ft | 428 kts | 178° |
| 2026-05-05 18:41 | 47.12879 | 8.35716 | 38914 ft | 426 kts | 178° |
| 2026-05-05 18:41 | 47.06971 | 8.36522 | 38901 ft | 426 kts | 178° |
| 2026-05-05 18:42 | 47.01053 | 8.37328 | 38884 ft | 427 kts | 178° |
| 2026-05-05 18:42 | 46.98127 | 8.37726 | 38683 ft | 427 kts | 178° |
| 2026-05-05 18:42 | 46.95175 | 8.38128 | 38438 ft | 425 kts | 178° |
| 2026-05-05 18:43 | 46.92237 | 8.38527 | 38150 ft | 423 kts | 178° |
| 2026-05-05 18:43 | 46.89311 | 8.38924 | 37885 ft | 423 kts | 178° |
| 2026-05-05 18:43 | 46.86377 | 8.39321 | 37604 ft | 424 kts | 179° |
| 2026-05-05 18:43 | 46.83427 | 8.39720 | 37033 ft | 427 kts | 179° |
| 2026-05-05 18:44 | 46.80460 | 8.40122 | 36347 ft | 428 kts | 179° |
| 2026-05-05 18:44 | 46.77495 | 8.40524 | 35683 ft | 428 kts | 179° |
| 2026-05-05 18:44 | 46.74530 | 8.40926 | 34899 ft | 429 kts | 179° |
| 2026-05-05 18:44 | 46.71591 | 8.41322 | 34166 ft | 430 kts | 180° |
| 2026-05-05 18:45 | 46.68576 | 8.41732 | 33327 ft | 429 kts | 180° |
| 2026-05-05 18:45 | 46.65612 | 8.42131 | 32550 ft | 427 kts | 180° |
| 2026-05-05 18:45 | 46.62734 | 8.42517 | 31773 ft | 424 kts | 180° |
| 2026-05-05 18:45 | 46.59790 | 8.42910 | 30988 ft | 423 kts | 180° |
| 2026-05-05 18:46 | 46.56877 | 8.43300 | 30464 ft | 417 kts | 180° |
| 2026-05-05 18:46 | 46.54003 | 8.43686 | 29867 ft | 412 kts | 179° |
| 2026-05-05 18:46 | 46.51171 | 8.44065 | 29286 ft | 406 kts | 179° |
| 2026-05-05 18:46 | 46.48374 | 8.44437 | 28736 ft | 401 kts | 179° |
| 2026-05-05 18:47 | 46.45612 | 8.44804 | 28168 ft | 395 kts | 179° |
| 2026-05-05 18:47 | 46.42892 | 8.45165 | 27621 ft | 390 kts | 179° |
| 2026-05-05 18:47 | 46.40204 | 8.45520 | 27049 ft | 387 kts | 179° |
| 2026-05-05 18:47 | 46.37541 | 8.45877 | 26539 ft | 382 kts | 180° |
| 2026-05-05 18:48 | 46.34899 | 8.46228 | 25998 ft | 379 kts | 180° |
| 2026-05-05 18:48 | 46.32286 | 8.46574 | 25468 ft | 376 kts | 180° |
| 2026-05-05 18:48 | 46.29700 | 8.46917 | 24937 ft | 372 kts | 180° |
| 2026-05-05 18:48 | 46.27136 | 8.47255 | 24408 ft | 368 kts | 180° |
| 2026-05-05 18:49 | 46.24596 | 8.47604 | 23869 ft | 365 kts | 179° |
| 2026-05-05 18:49 | 46.22083 | 8.47964 | 23322 ft | 361 kts | 179° |
| 2026-05-05 18:49 | 46.19596 | 8.48323 | 22782 ft | 357 kts | 179° |
| 2026-05-05 18:49 | 46.17137 | 8.48678 | 22279 ft | 353 kts | 179° |
| 2026-05-05 18:50 | 46.14697 | 8.49027 | 21765 ft | 350 kts | 179° |
| 2026-05-05 18:50 | 46.12284 | 8.49410 | 21266 ft | 348 kts | 175° |
| 2026-05-05 18:50 | 46.09921 | 8.50164 | 20770 ft | 348 kts | 168° |
| 2026-05-05 18:50 | 46.07634 | 8.51326 | 20269 ft | 348 kts | 164° |
| 2026-05-05 18:51 | 46.05379 | 8.52561 | 19771 ft | 345 kts | 164° |
| 2026-05-05 18:51 | 46.03138 | 8.53776 | 19258 ft | 344 kts | 164° |
| 2026-05-05 18:51 | 46.00904 | 8.54981 | 18768 ft | 341 kts | 164° |
| 2026-05-05 18:51 | 45.98680 | 8.56174 | 18255 ft | 341 kts | 164° |
| 2026-05-05 18:52 | 45.96463 | 8.57364 | 17731 ft | 339 kts | 164° |
| 2026-05-05 18:52 | 45.94267 | 8.58544 | 17274 ft | 336 kts | 164° |
| 2026-05-05 18:52 | 45.92092 | 8.59711 | 17001 ft | 334 kts | 163° |
| 2026-05-05 18:52 | 45.89997 | 8.61081 | 16726 ft | 333 kts | 155° |
| 2026-05-05 18:53 | 45.88136 | 8.62818 | 16469 ft | 321 kts | 147° |
| 2026-05-05 18:53 | 45.86400 | 8.64849 | 16204 ft | 308 kts | 145° |
| 2026-05-05 18:53 | 45.84780 | 8.66751 | 15948 ft | 294 kts | 146° |
| 2026-05-05 18:53 | 45.83223 | 8.68562 | 15661 ft | 285 kts | 146° |
| 2026-05-05 18:54 | 45.81659 | 8.70365 | 15428 ft | 292 kts | 146° |
| 2026-05-05 18:54 | 45.80075 | 8.72189 | 15181 ft | 289 kts | 146° |
| 2026-05-05 18:54 | 45.78529 | 8.73977 | 14744 ft | 284 kts | 146° |
| 2026-05-05 18:54 | 45.77042 | 8.75691 | 14227 ft | 282 kts | 147° |
| 2026-05-05 18:55 | 45.75398 | 8.77224 | 13684 ft | 277 kts | 156° |
| 2026-05-05 18:55 | 45.73695 | 8.78508 | 13119 ft | 275 kts | 156° |
| 2026-05-05 18:55 | 45.72017 | 8.79789 | 12560 ft | 273 kts | 156° |
| 2026-05-05 18:55 | 45.70352 | 8.81067 | 12046 ft | 270 kts | 155° |
| 2026-05-05 18:56 | 45.68707 | 8.82333 | 11526 ft | 267 kts | 155° |
| 2026-05-05 18:56 | 45.67077 | 8.83587 | 11009 ft | 265 kts | 155° |
| 2026-05-05 18:56 | 45.65454 | 8.84834 | 10567 ft | 264 kts | 155° |
| 2026-05-05 18:56 | 45.63845 | 8.86070 | 10247 ft | 262 kts | 155° |
| 2026-05-05 18:57 | 45.62261 | 8.87239 | 10100 ft | 249 kts | 160° |
| 2026-05-05 18:57 | 45.60654 | 8.88008 | 9728 ft | 244 kts | 170° |
| 2026-05-05 18:57 | 45.59118 | 8.88417 | 9322 ft | 243 kts | 172° |
| 2026-05-05 18:57 | 45.57462 | 8.88852 | 8881 ft | 241 kts | 172° |
| 2026-05-05 18:58 | 45.55822 | 8.89293 | 8333 ft | 239 kts | 171° |
| 2026-05-05 18:58 | 45.54190 | 8.89737 | 7799 ft | 238 kts | 171° |
| 2026-05-05 18:58 | 45.52573 | 8.90177 | 7286 ft | 236 kts | 171° |
| 2026-05-05 18:58 | 45.50961 | 8.90616 | 6781 ft | 235 kts | 171° |
| 2026-05-05 18:59 | 45.49361 | 8.91051 | 6284 ft | 234 kts | 171° |
| 2026-05-05 18:59 | 45.47779 | 8.91482 | 5749 ft | 233 kts | 170° |
| 2026-05-05 18:59 | 45.46193 | 8.91913 | 5234 ft | 232 kts | 170° |
| 2026-05-05 18:59 | 45.44610 | 8.92343 | 4730 ft | 231 kts | 170° |
| 2026-05-05 19:00 | 45.43145 | 8.92741 | 4260 ft | 230 kts | 169° |
| 2026-05-05 19:00 | 45.41698 | 8.93134 | 4069 ft | 228 kts | 169° |
| 2026-05-05 19:00 | 45.40134 | 8.93559 | 4015 ft | 229 kts | 169° |
| 2026-05-05 19:00 | 45.38570 | 8.93984 | 4013 ft | 228 kts | 169° |
| 2026-05-05 19:01 | 45.37020 | 8.94406 | 4011 ft | 225 kts | 170° |
| 2026-05-05 19:01 | 45.35477 | 8.94825 | 4012 ft | 226 kts | 170° |
| 2026-05-05 19:01 | 45.33929 | 8.95245 | 4009 ft | 226 kts | 170° |
| 2026-05-05 19:01 | 45.32396 | 8.95661 | 4009 ft | 227 kts | 170° |
| 2026-05-05 19:02 | 45.30845 | 8.96081 | 4008 ft | 226 kts | 170° |
| 2026-05-05 19:02 | 45.29298 | 8.96500 | 4007 ft | 227 kts | 170° |
| 2026-05-05 19:02 | 45.27813 | 8.96904 | 3994 ft | 226 kts | 170° |
| 2026-05-05 19:02 | 45.26228 | 8.97337 | 3993 ft | 227 kts | 170° |
| 2026-05-05 19:03 | 45.24996 | 8.97673 | 3996 ft | 226 kts | 170° |
| 2026-05-05 19:03 | 45.23451 | 8.98094 | 3998 ft | 226 kts | 170° |
| 2026-05-05 19:03 | 45.21916 | 8.98242 | 3999 ft | 225 kts | 192° |
| 2026-05-05 19:03 | 45.20530 | 8.97262 | 3999 ft | 226 kts | 223° |
| 2026-05-05 19:04 | 45.19736 | 8.95353 | 3998 ft | 230 kts | 255° |
| 2026-05-05 19:04 | 45.19549 | 8.93090 | 3996 ft | 232 kts | 263° |
| 2026-05-05 19:04 | 45.19421 | 8.90811 | 3997 ft | 231 kts | 263° |
| 2026-05-05 19:04 | 45.19296 | 8.88539 | 3998 ft | 232 kts | 263° |
| 2026-05-05 19:05 | 45.19165 | 8.86259 | 4000 ft | 233 kts | 263° |
| 2026-05-05 19:05 | 45.19024 | 8.83968 | 3999 ft | 233 kts | 263° |
| 2026-05-05 19:05 | 45.18881 | 8.81675 | 3999 ft | 233 kts | 263° |
| 2026-05-05 19:05 | 45.18740 | 8.79391 | 3999 ft | 233 kts | 263° |
| 2026-05-05 19:06 | 45.18600 | 8.77103 | 3999 ft | 233 kts | 263° |
| 2026-05-05 19:06 | 45.18458 | 8.74812 | 3999 ft | 233 kts | 263° |
| 2026-05-05 19:06 | 45.18406 | 8.72516 | 3996 ft | 235 kts | 278° |
| 2026-05-05 19:06 | 45.19081 | 8.70416 | 3998 ft | 239 kts | 310° |
| 2026-05-05 19:07 | 45.20442 | 8.69102 | 4019 ft | 240 kts | 342° |
| 2026-05-05 19:07 | 45.22093 | 8.68972 | 4022 ft | 241 kts | 14° |
| 2026-05-05 19:07 | 45.23665 | 8.69788 | 4022 ft | 240 kts | 23° |
| 2026-05-05 19:07 | 45.25210 | 8.70698 | 4006 ft | 240 kts | 23° |
| 2026-05-05 19:08 | 45.26673 | 8.71568 | 3804 ft | 239 kts | 23° |
| 2026-05-05 19:08 | 45.28273 | 8.72514 | 3544 ft | 237 kts | 23° |
| 2026-05-05 19:08 | 45.29792 | 8.73407 | 3289 ft | 235 kts | 23° |
| 2026-05-05 19:08 | 45.31288 | 8.74285 | 3073 ft | 231 kts | 24° |
| 2026-05-05 19:09 | 45.32783 | 8.75152 | 3023 ft | 232 kts | 24° |
| 2026-05-05 19:09 | 45.34284 | 8.76016 | 3032 ft | 232 kts | 23° |
| 2026-05-05 19:09 | 45.35779 | 8.76883 | 3026 ft | 233 kts | 23° |
| 2026-05-05 19:09 | 45.37274 | 8.77757 | 3026 ft | 233 kts | 23° |
| 2026-05-05 19:10 | 45.38776 | 8.78624 | 3020 ft | 233 kts | 22° |
| 2026-05-05 19:10 | 45.40350 | 8.79152 | 3028 ft | 233 kts | 5° |
| 2026-05-05 19:10 | 45.41940 | 8.79091 | 3021 ft | 222 kts | 354° |
| 2026-05-05 19:10 | 45.43409 | 8.78765 | 3012 ft | 205 kts | 349° |
| 2026-05-05 19:11 | 45.44709 | 8.78396 | 2996 ft | 186 kts | 350° |
| 2026-05-05 19:11 | 45.45926 | 8.78063 | 3000 ft | 183 kts | 350° |
| 2026-05-05 19:11 | 45.47172 | 8.77721 | 2997 ft | 181 kts | 350° |
| 2026-05-05 19:11 | 45.48412 | 8.77380 | 3003 ft | 181 kts | 350° |
| 2026-05-05 19:12 | 45.49647 | 8.77040 | 3023 ft | 181 kts | 350° |
| 2026-05-05 19:12 | 45.50892 | 8.76698 | 2904 ft | 183 kts | 350° |
| 2026-05-05 19:12 | 45.52123 | 8.76358 | 2653 ft | 179 kts | 350° |
| 2026-05-05 19:12 | 45.53322 | 8.76028 | 2418 ft | 170 kts | 351° |
| 2026-05-05 19:13 | 45.54445 | 8.75718 | 2159 ft | 159 kts | 351° |
| 2026-05-05 19:13 | 45.55494 | 8.75417 | 1962 ft | 151 kts | 351° |
| 2026-05-05 19:13 | 45.56518 | 8.75120 | 1720 ft | 149 kts | 351° |
| 2026-05-05 19:13 | 45.57519 | 8.74864 | 1546 ft | 143 kts | 351° |
| 2026-05-05 19:14 | 45.58485 | 8.74583 | 1378 ft | 142 kts | 349° |
| 2026-05-05 19:14 | 45.59447 | 8.74337 | 1155 ft | 139 kts | 350° |
| 2026-05-05 19:14 | 45.60389 | 8.74082 | 966 ft | 138 kts | 348° |
| 2026-05-05 19:14 | 45.61343 | 8.73814 | 812 ft | 140 kts | 349° |
| 2026-05-05 19:15 | 45.62272 | 8.73560 | 719 ft | 128 kts | 349° |
| 2026-05-05 19:15 | 45.62863 | 8.73396 | 717 ft | 55 kts | 348° |
| 2026-05-05 19:15 | 45.63147 | 8.73239 | 714 ft | 41 kts | 322° |
| 2026-05-05 19:15 | 45.63280 | 8.73028 | 715 ft | 19 kts | 304° |
| 2026-05-05 19:16 | 45.63344 | 8.72895 | 718 ft | 14 kts | 304° |
| 2026-05-05 19:16 | 45.63405 | 8.72768 | 718 ft | 17 kts | 306° |
| 2026-05-05 19:16 | 45.63507 | 8.72682 | 715 ft | 19 kts | 348° |
| 2026-05-05 19:16 | 45.63643 | 8.72645 | 716 ft | 21 kts | 349° |
| 2026-05-05 19:17 | 45.63786 | 8.72604 | 716 ft | 20 kts | 348° |
| 2026-05-05 19:17 | 45.63894 | 8.72573 | 720 ft | 2 kts | 349° |
| 2026-05-05 19:17 | 45.63902 | 8.72571 | 719 ft | 3 kts | 349° |
| 2026-05-05 19:17 | 45.63930 | 8.72560 | 717 ft | 6 kts | 337° |
| 2026-05-05 19:18 | 45.63949 | 8.72527 | 716 ft | 7 kts | 289° |
| 2026-05-05 19:18 | 45.63944 | 8.72436 | 717 ft | 12 kts | 261° |
| 2026-05-05 19:18 | 45.63967 | 8.72346 | 718 ft | 10 kts | 333° |
| 2026-05-05 19:18 | 45.64035 | 8.72323 | 717 ft | 11 kts | 350° |
| 2026-05-05 19:19 | 45.64113 | 8.72302 | 717 ft | 12 kts | 349° |
| 2026-05-05 19:19 | 45.64177 | 8.72284 | 717 ft | 8 kts | 349° |
| 2026-05-05 19:19 | 45.64233 | 8.72269 | 716 ft | 9 kts | 349° |
| 2026-05-05 19:19 | 45.64293 | 8.72252 | 716 ft | 9 kts | 349° |
| 2026-05-05 19:20 | 45.64357 | 8.72234 | 718 ft | 10 kts | 348° |
| 2026-05-05 19:20 | 45.64428 | 8.72187 | 719 ft | 12 kts | 313° |
| 2026-05-05 19:20 | 45.64493 | 8.72119 | 715 ft | 12 kts | 346° |
| 2026-05-05 19:20 | 45.64568 | 8.72099 | 716 ft | 7 kts | 351° |
| 2026-05-05 19:21 | 45.64594 | 8.72142 | 718 ft | 6 kts | 75° |
| 2026-05-05 19:21 | 45.64601 | 8.72195 | 720 ft | 3 kts | 78° |
| 2026-05-05 19:21 | 45.64602 | 8.72203 | 719 ft | 0 kts | 79° |